Elysian, MN

12:52 AM CST on December 19, 2014 (GMT -0600)
North East Blue Earth County, Minnesota | Change Station
CLOSE
Current Station
Personal Weather Station
Location: Eagle Lake, MN
Elevation: 1010 ft
Nearby Weather Stations

Elev 1010 ft 44.17 °N, 93.84 °W | Updated 2 minutes ago

Overcast
Overcast
22.5 °F
Feels Like 22 °F
N
2.0
Wind Variable Wind from SE
Gusts 3.0 mph

Today
High -- | Low -- °F
--% Chance of Precip.
Yesterday
High -- | Low -- °F
Precip. -- in
7:46 AM 4:37 PM
Waning Crescent, 9% visible
Pressure 30.25 in
Visibility 7.0 miles
Clouds Few 4200 ft
Overcast 8000 ft
Windchill 22 °F
Dew Point 20 °F
Humidity 91%
Rainfall 0.00 in
Snow Depth Not available.
UV 0 out of 12
Pollen .10 out of 12
Air Quality Not available.
Flu Activity Not available.
METAR KMKT 190635Z AUTO 13006KT 7SM FEW042 OVC080 M05/M08 A3025 RMK AO1

More Conditions Fewer Conditions

Pressure 30.25 in
Visibility 7.0 miles
Clouds Few 4200 ft
Overcast 8000 ft
Windchill 22 °F
Dew Point 20 °F
Humidity 91%
Rainfall 0.00 in
Snow Depth Not available.
UV 0 out of 12
Pollen .10 out of 12
Air Quality Not available.
Flu Activity Not available.
METAR KMKT 190635Z AUTO 13006KT 7SM FEW042 OVC080 M05/M08 A3025 RMK AO1

More Conditions Fewer Conditions

10-Day Weather Forecast

Almanac

Astronomy

Dec. 19, 2014 Rise Set
Actual Time
Civil Twilight
Nautical Twilight
Astronomical Twilight
Moon
Length of Visible Light
Length of Day
Tomorrow will be .
, % of the Moon is Illuminated

Today's Extremes

State Highs State Lows

Community

WunderPhotos

Upload Photos

1,778,952 photos uploaded!

WunderBlogs® & News

Nearby

Air Quality

  Air Quality AQ Index Pollutant
Not available.

Snow Depth

Station Depth Elevation

Earthquake Activity

City Distance Mag. Time & Date
Minimum magnitude displayed is 2.5.

Coastal Water Temperatures

Place Temperature

Nearby Weather Stations